Time;durP1;ratioP1;P1;durP2;ratioP2;P2;SDS_P1;SDS_P2;PMS_P1;PMS_P2;Temp;Humidity;BMP_temperature;BMP_pressure;BME280_temperature;BME280_humidity;BME280_pressure;Samples;Min_cycle;Max_cycle;Signal;HPM_P1;HPM_P2
2023/07/11 00:02:20;;;;;;;6.03;2.78;;;;;;;;;;4836391;29;20058;-74
2023/07/11 00:04:50;;;;;;;7.55;3.15;;;;;;;;;;4836045;29;20426;-74
2023/07/11 00:07:21;;;;;;;7.20;3.60;;;;;;;;;;4836138;29;20297;-73
2023/07/11 00:09:51;;;;;;;9.27;3.40;;;;;;;;;;4836087;29;20053;-74
2023/07/11 00:12:28;;;;;;;9.63;3.38;;;;;;;;;;4835750;29;20420;-73
2023/07/11 00:14:59;;;;;;;13.40;3.67;;;;;;;;;;4818566;29;20065;-74
2023/07/11 00:17:29;;;;;;;9.55;2.97;;;;;;;;;;4835508;29;20046;-74
2023/07/11 00:19:59;;;;;;;4.82;2.75;;;;;;;;;;4834824;29;20050;-73
2023/07/11 00:22:31;;;;;;;10.38;3.50;;;;;;;;;;4835898;29;20498;-74
2023/07/11 00:25:04;;;;;;;6.57;3.10;;;;;;;;;;4835953;29;20057;-75
2023/07/11 00:27:36;;;;;;;9.05;3.28;;;;;;;;;;4835426;29;20058;-74
2023/07/11 00:30:08;;;;;;;8.90;2.97;;;;;;;;;;4835893;29;20100;-73
2023/07/11 00:32:38;;;;;;;5.90;2.60;;;;;;;;;;4835926;29;20060;-74
2023/07/11 00:35:10;;;;;;;6.25;2.63;;;;;;;;;;4835265;29;20050;-74
2023/07/11 00:37:42;;;;;;;11.60;3.00;;;;;;;;;;4835450;29;20050;-74
2023/07/11 00:40:14;;;;;;;5.05;2.45;;;;;;;;;;4835965;29;20054;-74
2023/07/11 00:42:44;;;;;;;5.20;2.78;;;;;;;;;;4834944;29;20050;-74
2023/07/11 00:45:52;;;;;;;4.57;2.53;;;;;;;;;;4835668;29;20057;-74
2023/07/11 00:48:24;;;;;;;13.88;2.92;;;;;;;;;;4835289;29;20594;-73
2023/07/11 00:50:56;;;;;;;5.72;2.53;;;;;;;;;;4835564;29;20420;-74
2023/07/11 00:53:29;;;;;;;6.28;2.63;;;;;;;;;;4835095;29;20046;-73
2023/07/11 00:56:06;;;;;;;9.35;3.50;;;;;;;;;;4835652;29;20395;-74
2023/07/11 00:58:41;;;;;;;7.45;2.80;;;;;;;;;;4835120;29;20061;-74
2023/07/11 01:01:13;;;;;;;6.53;3.22;;;;;;;;;;4835263;29;20061;-74
2023/07/11 01:03:43;;;;;;;8.00;3.13;;;;;;;;;;4834712;29;20054;-73
2023/07/11 01:06:17;;;;;;;11.60;2.90;;;;;;;;;;4817604;29;20105;-73
2023/07/11 01:08:50;;;;;;;6.28;2.97;;;;;;;;;;4816812;29;20057;-73
2023/07/11 01:11:25;;;;;;;13.75;2.65;;;;;;;;;;4835030;29;20057;-74
2023/07/11 01:13:57;;;;;;;6.13;2.95;;;;;;;;;;4835196;29;20045;-73
2023/07/11 01:16:27;;;;;;;11.20;2.80;;;;;;;;;;4835734;29;21040;-74
2023/07/11 01:18:58;;;;;;;7.78;2.55;;;;;;;;;;4834911;29;20065;-74
2023/07/11 01:21:29;;;;;;;12.18;3.20;;;;;;;;;;4818139;29;20537;-73
2023/07/11 01:24:00;;;;;;;11.52;3.22;;;;;;;;;;4817568;29;20054;-73
2023/07/11 01:26:31;;;;;;;12.15;3.05;;;;;;;;;;4835145;29;20054;-74
2023/07/11 01:29:02;;;;;;;8.07;2.55;;;;;;;;;;4834214;29;20089;-73
2023/07/11 01:31:36;;;;;;;7.32;2.80;;;;;;;;;;4835177;29;20061;-73
2023/07/11 01:34:08;;;;;;;5.72;2.45;;;;;;;;;;4833622;29;20588;-72
2023/07/11 01:36:40;;;;;;;6.97;2.55;;;;;;;;;;4833627;29;20556;-72
2023/07/11 01:39:12;;;;;;;6.40;2.60;;;;;;;;;;4834035;29;20076;-73
2023/07/11 01:41:43;;;;;;;9.48;2.65;;;;;;;;;;4803212;29;20064;-72
2023/07/11 01:44:13;;;;;;;7.97;2.08;;;;;;;;;;4817941;29;20518;-73
2023/07/11 01:46:44;;;;;;;6.43;2.10;;;;;;;;;;4835341;29;20045;-73
2023/07/11 01:49:15;;;;;;;3.30;2.00;;;;;;;;;;4817977;29;20061;-73
2023/07/11 01:51:46;;;;;;;10.40;2.20;;;;;;;;;;4834035;29;20061;-74
2023/07/11 01:54:16;;;;;;;7.35;2.33;;;;;;;;;;4818037;29;20058;-74
2023/07/11 01:56:47;;;;;;;9.50;2.40;;;;;;;;;;4834443;29;20543;-73
2023/07/11 01:59:19;;;;;;;7.30;2.05;;;;;;;;;;4818010;29;20068;-74
2023/07/11 02:01:49;;;;;;;5.40;1.98;;;;;;;;;;4817887;29;20411;-73
2023/07/11 02:04:21;;;;;;;6.10;2.22;;;;;;;;;;4834670;29;20410;-73
2023/07/11 02:06:53;;;;;;;3.40;1.58;;;;;;;;;;4817861;29;20054;-73
2023/07/11 02:09:25;;;;;;;11.30;2.10;;;;;;;;;;4834335;29;20053;-74
2023/07/11 02:11:56;;;;;;;13.68;2.20;;;;;;;;;;4817605;29;20061;-73
2023/07/11 02:14:26;;;;;;;9.98;2.17;;;;;;;;;;4817231;29;20050;-74
2023/07/11 02:16:59;;;;;;;4.50;1.75;;;;;;;;;;4817673;29;20077;-73
2023/07/11 02:19:29;;;;;;;4.15;1.58;;;;;;;;;;4834441;29;20038;-74
2023/07/11 02:22:02;;;;;;;4.75;1.48;;;;;;;;;;4802878;29;20065;-74
2023/07/11 02:24:32;;;;;;;7.75;1.83;;;;;;;;;;4834211;29;20050;-73
2023/07/11 02:27:04;;;;;;;5.07;1.63;;;;;;;;;;4833905;29;20057;-73
2023/07/11 02:29:34;;;;;;;3.83;2.00;;;;;;;;;;4834275;29;20446;-73
2023/07/11 02:32:05;;;;;;;9.30;1.88;;;;;;;;;;4834597;29;20054;-73
2023/07/11 02:34:35;;;;;;;8.48;1.73;;;;;;;;;;4819652;29;20061;-73
2023/07/11 02:37:06;;;;;;;4.90;1.48;;;;;;;;;;4837966;29;20367;-73
2023/07/11 02:39:37;;;;;;;7.47;1.50;;;;;;;;;;4837706;29;20058;-74
2023/07/11 02:42:07;;;;;;;6.18;1.30;;;;;;;;;;4837802;29;20058;-74
2023/07/11 02:44:38;;;;;;;8.50;1.30;;;;;;;;;;4837444;29;20069;-73
2023/07/11 02:47:08;;;;;;;16.42;2.92;;;;;;;;;;4837412;29;20498;-72
2023/07/11 02:49:41;;;;;;;7.18;1.80;;;;;;;;;;4837488;29;20057;-73
2023/07/11 02:52:11;;;;;;;7.30;1.42;;;;;;;;;;4820670;29;20056;-73
2023/07/11 02:54:43;;;;;;;7.18;1.40;;;;;;;;;;4837787;29;20057;-73
2023/07/11 02:57:13;;;;;;;4.45;1.35;;;;;;;;;;4837407;29;20065;-73
2023/07/11 02:59:44;;;;;;;7.25;1.13;;;;;;;;;;4837551;29;20061;-74
2023/07/11 03:02:15;;;;;;;4.05;1.20;;;;;;;;;;4837089;29;20045;-73
2023/07/11 03:04:46;;;;;;;8.10;1.58;;;;;;;;;;4837146;29;20061;-74
2023/07/11 03:07:16;;;;;;;8.52;1.92;;;;;;;;;;4837019;29;20046;-74
2023/07/11 03:09:46;;;;;;;7.18;1.67;;;;;;;;;;4837516;29;20061;-73
2023/07/11 03:12:18;;;;;;;3.92;1.52;;;;;;;;;;4837084;29;20054;-73
2023/07/11 03:14:51;;;;;;;5.45;1.30;;;;;;;;;;4837467;29;20058;-73
2023/07/11 03:17:21;;;;;;;5.43;1.27;;;;;;;;;;4836909;29;20533;-73
2023/07/11 03:19:52;;;;;;;5.30;1.35;;;;;;;;;;4837189;29;20054;-73
2023/07/11 03:22:22;;;;;;;9.63;1.40;;;;;;;;;;4821025;29;20053;-74
2023/07/11 03:24:52;;;;;;;6.50;1.48;;;;;;;;;;4837309;29;20046;-73
2023/07/11 03:27:23;;;;;;;4.45;1.08;;;;;;;;;;4837098;29;20053;-73
2023/07/11 03:29:53;;;;;;;4.68;1.23;;;;;;;;;;4836664;29;20061;-73
2023/07/11 03:32:23;;;;;;;3.72;1.17;;;;;;;;;;4836824;29;20430;-73
2023/07/11 03:34:54;;;;;;;4.20;1.30;;;;;;;;;;4836791;29;20056;-74
2023/07/11 03:37:32;;;;;;;7.10;1.65;;;;;;;;;;4836833;29;20053;-73
2023/07/11 03:40:03;;;;;;;3.20;1.20;;;;;;;;;;4837220;29;20058;-73
2023/07/11 03:42:34;;;;;;;8.27;1.80;;;;;;;;;;4820028;29;20064;-73
2023/07/11 03:45:06;;;;;;;8.10;1.50;;;;;;;;;;4836776;29;20053;-73
2023/07/11 03:47:38;;;;;;;12.52;2.22;;;;;;;;;;4835749;29;20529;-73
2023/07/11 03:50:10;;;;;;;8.30;1.38;;;;;;;;;;4820547;29;20061;-73
2023/07/11 03:52:41;;;;;;;4.57;1.30;;;;;;;;;;4836118;29;20054;-73
2023/07/11 03:55:12;;;;;;;9.65;2.08;;;;;;;;;;4836448;29;20525;-73
2023/07/11 03:57:42;;;;;;;8.70;1.42;;;;;;;;;;4836463;29;20046;-74
2023/07/11 04:00:13;;;;;;;4.25;1.58;;;;;;;;;;4837134;29;20054;-73
2023/07/11 04:02:44;;;;;;;9.10;1.80;;;;;;;;;;4836028;29;20054;-73
2023/07/11 04:05:16;;;;;;;7.32;1.77;;;;;;;;;;4819941;29;20053;-73
2023/07/11 04:07:47;;;;;;;9.00;2.00;;;;;;;;;;4819873;29;20058;-74
2023/07/11 04:10:17;;;;;;;8.35;1.73;;;;;;;;;;4835510;29;20430;-73
2023/07/11 04:12:47;;;;;;;10.43;1.88;;;;;;;;;;4836313;29;20045;-73
2023/07/11 04:15:18;;;;;;;9.73;2.40;;;;;;;;;;4836254;29;20045;-73
2023/07/11 04:17:49;;;;;;;14.48;1.98;;;;;;;;;;4836238;29;20398;-72
2023/07/11 04:20:20;;;;;;;4.05;1.58;;;;;;;;;;4836105;29;20064;-73
2023/07/11 04:22:50;;;;;;;7.20;2.05;;;;;;;;;;4819295;29;20061;-73
2023/07/11 04:25:20;;;;;;;5.13;1.80;;;;;;;;;;4835623;29;20066;-74
2023/07/11 04:27:52;;;;;;;2.70;1.70;;;;;;;;;;4836043;29;20065;-73
2023/07/11 04:30:23;;;;;;;12.70;1.75;;;;;;;;;;4836205;29;20054;-73
2023/07/11 04:32:55;;;;;;;5.68;1.80;;;;;;;;;;4836077;29;20054;-73
2023/07/11 04:35:25;;;;;;;7.80;1.80;;;;;;;;;;4835970;29;20045;-73
2023/07/11 04:37:57;;;;;;;8.93;2.13;;;;;;;;;;4835919;29;20884;-73
2023/07/11 04:40:28;;;;;;;4.20;1.92;;;;;;;;;;4835468;29;20050;-74
2023/07/11 04:42:59;;;;;;;5.90;2.15;;;;;;;;;;4835443;29;20054;-74
2023/07/11 04:45:29;;;;;;;8.15;2.30;;;;;;;;;;4835781;29;20064;-73
2023/07/11 04:48:01;;;;;;;10.48;2.40;;;;;;;;;;4835534;29;20050;-74
2023/07/11 04:50:32;;;;;;;3.90;1.70;;;;;;;;;;4835746;29;20065;-73
2023/07/11 04:53:04;;;;;;;6.68;1.98;;;;;;;;;;4834879;29;20062;-74
2023/07/11 04:55:34;;;;;;;8.00;2.38;;;;;;;;;;4835193;29;20404;-74
2023/07/11 04:58:04;;;;;;;9.80;3.13;;;;;;;;;;4818162;29;20423;-72
2023/07/11 05:00:35;;;;;;;11.45;2.10;;;;;;;;;;4835231;29;20058;-73
2023/07/11 05:03:05;;;;;;;6.22;2.13;;;;;;;;;;4835157;29;20072;-73
2023/07/11 05:05:36;;;;;;;10.77;2.05;;;;;;;;;;4835365;29;20053;-73
2023/07/11 05:08:07;;;;;;;13.32;2.35;;;;;;;;;;4835774;29;20069;-74
2023/07/11 05:10:36;;;;;;;9.85;2.20;;;;;;;;;;4819283;29;20065;-74
2023/07/11 05:13:06;;;;;;;10.50;1.98;;;;;;;;;;4818715;29;20077;-73
2023/07/11 05:15:37;;;;;;;11.73;2.00;;;;;;;;;;4818327;29;20061;-74
2023/07/11 05:18:08;;;;;;;6.50;1.98;;;;;;;;;;4834795;29;20041;-73
2023/07/11 05:20:39;;;;;;;6.93;2.17;;;;;;;;;;4818946;29;20049;-74
2023/07/11 05:23:09;;;;;;;4.70;2.33;;;;;;;;;;4835059;29;20072;-73
2023/07/11 05:25:40;;;;;;;6.00;2.20;;;;;;;;;;4835184;29;20066;-73
2023/07/11 05:28:13;;;;;;;8.32;2.30;;;;;;;;;;4833985;29;20054;-74
2023/07/11 05:30:45;;;;;;;8.18;2.00;;;;;;;;;;4834971;29;20054;-74
2023/07/11 05:33:16;;;;;;;7.75;2.30;;;;;;;;;;4834741;29;20058;-74
2023/07/11 05:36:41;;;;;;;6.53;1.45;;;;;;;;;;4834619;29;20049;-73
2023/07/11 05:38:56;;;;;;;6.70;1.88;;;;;;;;;;4831083;29;20073;-73
2023/07/11 05:41:27;;;;;;;5.68;1.85;;;;;;;;;;4834872;29;20053;-73
2023/07/11 05:43:57;;;;;;;11.07;2.05;;;;;;;;;;4835198;29;20522;-73
2023/07/11 05:46:29;;;;;;;6.35;1.67;;;;;;;;;;4835124;29;20057;-74
2023/07/11 05:49:00;;;;;;;5.30;1.83;;;;;;;;;;4834297;29;20061;-74
2023/07/11 05:51:30;;;;;;;4.03;1.75;;;;;;;;;;4834485;29;20506;-74
2023/07/11 05:54:01;;;;;;;5.25;1.70;;;;;;;;;;4834828;29;20530;-73
2023/07/11 05:56:33;;;;;;;4.85;1.73;;;;;;;;;;4834663;29;20529;-73
2023/07/11 05:59:03;;;;;;;3.67;1.60;;;;;;;;;;4834547;29;20057;-74
2023/07/11 06:01:34;;;;;;;4.00;1.58;;;;;;;;;;4818797;29;20050;-73
2023/07/11 06:04:12;;;;;;;4.82;1.38;;;;;;;;;;4834010;29;20061;-73
2023/07/11 06:06:43;;;;;;;6.10;1.38;;;;;;;;;;4834112;29;20524;-74
2023/07/11 06:09:18;;;;;;;7.18;1.58;;;;;;;;;;4836520;29;20054;-73
2023/07/11 06:11:50;;;;;;;4.55;1.90;;;;;;;;;;4840683;29;20417;-73
2023/07/11 06:14:22;;;;;;;8.95;1.65;;;;;;;;;;4840322;29;20064;-73
2023/07/11 06:16:53;;;;;;;5.85;1.60;;;;;;;;;;4840649;29;20065;-73
2023/07/11 06:19:24;;;;;;;7.57;1.60;;;;;;;;;;4840686;29;20053;-73
2023/07/11 06:21:55;;;;;;;8.02;1.40;;;;;;;;;;4840242;29;20050;-74
2023/07/11 06:24:25;;;;;;;7.10;1.85;;;;;;;;;;4840258;29;20062;-73
2023/07/11 06:26:56;;;;;;;3.38;1.55;;;;;;;;;;4841076;29;20537;-73
2023/07/11 06:29:32;;;;;;;6.10;1.45;;;;;;;;;;4840361;29;20053;-73
2023/07/11 06:32:02;;;;;;;;;;;;;;;;;;4840668;29;20518;-73
2023/07/11 06:34:32;;;;;;;4.45;1.80;;;;;;;;;;4840409;29;20410;-73
2023/07/11 06:37:02;;;;;;;3.75;1.45;;;;;;;;;;4839996;29;20049;-74
2023/07/11 06:39:33;;;;;;;6.53;1.20;;;;;;;;;;4840681;29;20045;-74
2023/07/11 06:42:04;;;;;;;4.18;1.65;;;;;;;;;;4840383;29;20056;-73
2023/07/11 06:44:36;;;;;;;5.93;1.35;;;;;;;;;;4823708;29;20061;-73
2023/07/11 06:47:06;;;;;;;6.00;1.80;;;;;;;;;;4840297;29;20054;-73
2023/07/11 06:49:37;;;;;;;6.20;1.45;;;;;;;;;;4823101;29;20062;-73
2023/07/11 06:52:08;;;;;;;6.80;1.70;;;;;;;;;;4840243;29;20050;-73
2023/07/11 06:54:38;;;;;;;4.13;1.20;;;;;;;;;;4840097;29;20058;-73
2023/07/11 06:57:08;;;;;;;3.08;1.30;;;;;;;;;;4840329;29;20502;-73
2023/07/11 06:59:38;;;;;;;8.82;1.80;;;;;;;;;;4840185;29;20050;-73
2023/07/11 07:02:10;;;;;;;6.65;1.35;;;;;;;;;;4840946;29;20365;-73
2023/07/11 07:04:42;;;;;;;3.33;1.35;;;;;;;;;;4840684;29;20050;-73
2023/07/11 07:07:16;;;;;;;9.90;1.58;;;;;;;;;;4839917;29;20050;-73
2023/07/11 07:09:46;;;;;;;5.78;1.45;;;;;;;;;;4840422;29;20498;-73
2023/07/11 07:12:18;;;;;;;5.15;1.58;;;;;;;;;;4840075;29;20053;-73
2023/07/11 07:14:48;;;;;;;4.95;1.50;;;;;;;;;;4840247;29;20088;-73
2023/07/11 07:17:19;;;;;;;4.18;1.40;;;;;;;;;;4839864;29;20061;-72
2023/07/11 07:19:49;;;;;;;3.83;1.40;;;;;;;;;;4840372;29;20058;-73
2023/07/11 07:22:20;;;;;;;5.90;1.30;;;;;;;;;;4836697;29;20528;-73
2023/07/11 07:24:51;;;;;;;3.22;1.40;;;;;;;;;;4836617;29;20511;-73
2023/07/11 07:27:22;;;;;;;2.70;1.13;;;;;;;;;;4837078;29;20070;-73
2023/07/11 07:29:57;;;;;;;8.10;1.35;;;;;;;;;;4836887;29;20053;-73
2023/07/11 07:32:27;;;;;;;6.15;1.40;;;;;;;;;;4836666;29;20057;-72
2023/07/11 07:34:59;;;;;;;2.70;1.30;;;;;;;;;;4836915;29;20058;-73
2023/07/11 07:37:29;;;;;;;4.53;1.48;;;;;;;;;;4837093;29;20049;-73
2023/07/11 07:39:59;;;;;;;4.07;1.05;;;;;;;;;;4836709;29;20050;-73
2023/07/11 07:42:30;;;;;;;8.77;1.60;;;;;;;;;;4836208;29;20058;-73
2023/07/11 07:45:01;;;;;;;3.85;1.05;;;;;;;;;;4836630;29;20050;-73
2023/07/11 07:47:34;;;;;;;1.92;1.27;;;;;;;;;;4820470;29;20061;-74
2023/07/11 07:50:04;;;;;;;4.45;1.30;;;;;;;;;;4836585;29;20063;-73
2023/07/11 07:52:34;;;;;;;3.72;1.15;;;;;;;;;;4836943;29;20553;-74
2023/07/11 07:55:05;;;;;;;3.67;1.20;;;;;;;;;;4836772;29;20058;-73
2023/07/11 07:57:36;;;;;;;4.22;1.30;;;;;;;;;;4836307;29;20060;-74
2023/07/11 08:00:09;;;;;;;5.70;1.40;;;;;;;;;;4836661;29;20058;-74
2023/07/11 08:02:42;;;;;;;5.07;1.38;;;;;;;;;;4836268;29;20053;-74
2023/07/11 08:05:12;;;;;;;6.80;1.80;;;;;;;;;;4836665;29;20065;-74
2023/07/11 08:07:43;;;;;;;4.90;1.30;;;;;;;;;;4836129;29;20052;-73
2023/07/11 08:10:15;;;;;;;6.57;1.20;;;;;;;;;;4836787;29;20057;-72
2023/07/11 08:12:46;;;;;;;5.18;1.30;;;;;;;;;;4836027;29;20054;-73
2023/07/11 08:15:17;;;;;;;4.65;1.17;;;;;;;;;;4836695;29;20057;-72
2023/07/11 08:17:48;;;;;;;3.38;1.05;;;;;;;;;;4836220;29;20050;-73
2023/07/11 08:20:19;;;;;;;3.83;1.35;;;;;;;;;;4836118;29;20061;-73
2023/07/11 08:22:50;;;;;;;4.40;1.10;;;;;;;;;;4835883;29;20061;-74
2023/07/11 08:25:19;;;;;;;5.47;1.40;;;;;;;;;;4836398;29;20069;-75
2023/07/11 08:27:53;;;;;;;3.58;1.10;;;;;;;;;;4836272;29;20623;-74
2023/07/11 08:30:23;;;;;;;6.88;1.52;;;;;;;;;;4835684;29;20058;-75
2023/07/11 08:32:53;;;;;;;2.55;1.10;;;;;;;;;;4835123;29;20050;-74
2023/07/11 08:35:23;;;;;;;3.67;1.40;;;;;;;;;;4835866;29;20053;-73
2023/07/11 08:37:54;;;;;;;5.13;1.42;;;;;;;;;;4836008;29;20054;-74
2023/07/11 08:40:31;;;;;;;3.08;1.20;;;;;;;;;;4835630;29;20514;-73
2023/07/11 08:43:29;;;;;;;4.68;1.20;;;;;;;;;;4835796;29;20050;-74
2023/07/11 08:46:14;;;;;;;4.20;1.27;;;;;;;;;;4835805;29;20053;-73
2023/07/11 08:49:00;;;;;;;2.03;0.98;;;;;;;;;;4835627;29;20061;-73
2023/07/11 08:51:43;;;;;;;5.15;2.75;;;;;;;;;;4835263;29;20054;-72
2023/07/11 08:54:32;;;;;;;3.53;1.35;;;;;;;;;;4819643;29;20061;-73
2023/07/11 08:57:02;;;;;;;6.07;1.58;;;;;;;;;;4835809;29;20049;-73
2023/07/11 08:59:50;;;;;;;4.60;1.52;;;;;;;;;;4835741;29;20053;-74
2023/07/11 09:02:33;;;;;;;3.97;1.30;;;;;;;;;;4835135;29;20061;-74
2023/07/11 09:05:14;;;;;;;7.32;1.48;;;;;;;;;;4834790;29;20418;-73
2023/07/11 09:07:45;;;;;;;3.78;0.90;;;;;;;;;;4820488;29;20042;-73
2023/07/11 09:10:23;;;;;;;5.95;1.27;;;;;;;;;;4835362;29;20071;-77
2023/07/11 09:13:44;;;;;;;6.05;1.27;;;;;;;;;;4837808;29;20070;-73
2023/07/11 09:16:34;;;;;;;3.45;0.98;;;;;;;;;;4836170;29;20050;-74
2023/07/11 09:19:40;;;;;;;6.22;1.67;;;;;;;;;;4835244;29;20057;-73
2023/07/11 09:22:45;;;;;;;3.38;1.27;;;;;;;;;;4835369;29;20056;-73
2023/07/11 09:25:16;;;;;;;2.90;1.25;;;;;;;;;;4834787;29;20062;-73
2023/07/11 09:27:53;;;;;;;3.95;1.20;;;;;;;;;;4833682;29;20089;-73
2023/07/11 09:30:54;;;;;;;3.08;1.27;;;;;;;;;;4834921;29;20054;-73
2023/07/11 09:33:35;;;;;;;3.35;1.60;;;;;;;;;;4834798;29;20069;-73
2023/07/11 09:36:32;;;;;;;2.45;1.50;;;;;;;;;;4834613;29;20046;-73
2023/07/11 09:39:18;;;;;;;3.45;1.15;;;;;;;;;;4827326;29;20066;-73
2023/07/11 09:41:54;;;;;;;;;;;;;;;;;;4834975;29;20050;-73
2023/07/11 09:44:23;;;;;;;6.18;1.42;;;;;;;;;;4833808;29;19936;-73
2023/07/11 09:46:54;;;;;;;3.08;1.60;;;;;;;;;;4835062;29;20491;-73
2023/07/11 09:49:30;;;;;;;8.98;2.28;;;;;;;;;;4835477;29;20050;-72
2023/07/11 09:52:03;;;;;;;7.00;1.80;;;;;;;;;;4834540;29;20046;-73
2023/07/11 09:54:47;;;;;;;6.10;1.40;;;;;;;;;;4834776;29;20065;-74
2023/07/11 09:57:44;;;;;;;1.58;1.20;;;;;;;;;;4834393;29;20061;-73
2023/07/11 10:00:16;;;;;;;3.78;1.13;;;;;;;;;;4834479;29;20062;-74
2023/07/11 10:02:51;;;;;;;5.15;1.67;;;;;;;;;;4817698;29;20054;-73
2023/07/11 10:05:23;;;;;;;7.18;3.40;;;;;;;;;;4834705;29;20089;-73
2023/07/11 10:08:13;;;;;;;4.20;1.23;;;;;;;;;;4834340;29;20065;-73
2023/07/11 10:10:52;;;;;;;5.15;1.48;;;;;;;;;;4834284;29;20058;-74
2023/07/11 10:13:23;;;;;;;2.65;1.40;;;;;;;;;;4834376;29;20422;-75
2023/07/11 10:16:06;;;;;;;4.80;1.40;;;;;;;;;;4834825;29;20516;-73
2023/07/11 10:18:37;;;;;;;4.75;1.98;;;;;;;;;;4834183;29;20058;-74
2023/07/11 10:21:20;;;;;;;5.75;3.08;;;;;;;;;;4834252;29;20437;-73
2023/07/11 10:24:24;;;;;;;9.98;1.67;;;;;;;;;;4797522;29;20085;-73
2023/07/11 10:27:02;;;;;;;2.78;1.40;;;;;;;;;;4797715;29;20066;-72
2023/07/11 10:29:48;;;;;;;5.13;1.85;;;;;;;;;;4798147;29;20061;-75
2023/07/11 10:32:49;;;;;;;7.00;2.20;;;;;;;;;;4797549;29;20062;-72
2023/07/11 10:35:22;;;;;;;3.05;1.48;;;;;;;;;;4797991;29;20055;-76
2023/07/11 10:38:05;;;;;;;6.45;1.33;;;;;;;;;;4798096;29;20047;-73
2023/07/11 10:40:43;;;;;;;6.28;1.40;;;;;;;;;;4797708;29;20511;-73
2023/07/11 10:43:35;;;;;;;7.97;1.70;;;;;;;;;;4797550;29;20445;-73
2023/07/11 10:46:41;;;;;;;16.60;2.58;;;;;;;;;;4798001;29;20055;-73
2023/07/11 10:49:38;;;;;;;8.27;1.85;;;;;;;;;;4795486;29;20062;-74
2023/07/11 10:52:21;;;;;;;5.57;1.42;;;;;;;;;;4797613;29;20065;-73
2023/07/11 10:55:15;;;;;;;6.65;1.33;;;;;;;;;;4781399;29;20566;-75
2023/07/11 10:57:53;;;;;;;9.10;1.45;;;;;;;;;;4800736;29;20071;-75
2023/07/11 11:00:49;;;;;;;8.88;1.38;;;;;;;;;;4800829;29;20054;-75
2023/07/11 11:03:40;;;;;;;4.05;1.20;;;;;;;;;;4797633;29;20089;-74
2023/07/11 11:06:35;;;;;;;6.45;1.90;;;;;;;;;;4784752;29;20058;-74
2023/07/11 11:09:21;;;;;;;4.85;1.58;;;;;;;;;;4785014;29;20062;-75
2023/07/11 11:12:12;;;;;;;4.07;1.58;;;;;;;;;;4801077;29;20619;-74
2023/07/11 11:15:03;;;;;;;3.55;1.52;;;;;;;;;;4800954;29;20416;-74
2023/07/11 11:17:55;;;;;;;6.88;1.60;;;;;;;;;;4773876;29;20440;-74
2023/07/11 11:20:36;;;;;;;10.00;1.80;;;;;;;;;;4800505;29;20051;-75
2023/07/11 11:23:29;;;;;;;8.85;2.25;;;;;;;;;;4800962;29;20081;-74
2023/07/11 11:26:29;;;;;;;5.70;1.48;;;;;;;;;;4800624;29;20058;-73
2023/07/11 11:29:31;;;;;;;9.00;2.30;;;;;;;;;;4784994;29;20082;-75
2023/07/11 11:32:19;;;;;;;8.25;2.22;;;;;;;;;;4800879;29;20427;-75
2023/07/11 11:35:25;;;;;;;5.97;1.38;;;;;;;;;;4799859;29;20058;-73
2023/07/11 11:38:27;;;;;;;15.18;2.15;;;;;;;;;;4800325;29;20418;-74
2023/07/11 11:41:02;;;;;;;8.43;1.40;;;;;;;;;;4783666;29;20058;-74
2023/07/11 11:43:34;;;;;;;6.90;1.98;;;;;;;;;;4800394;29;20055;-74
2023/07/11 11:46:25;;;;;;;7.22;3.13;;;;;;;;;;4800235;29;20047;-73
2023/07/11 11:49:03;;;;;;;11.27;1.70;;;;;;;;;;4800223;29;20058;-74
2023/07/11 11:51:55;;;;;;;8.80;1.90;;;;;;;;;;4800238;29;20054;-74
2023/07/11 11:54:25;;;;;;;3.78;1.63;;;;;;;;;;4800448;29;20058;-74
2023/07/11 11:56:58;;;;;;;12.60;2.33;;;;;;;;;;4800358;29;20039;-73
2023/07/11 11:59:31;;;;;;;4.30;2.00;;;;;;;;;;4800230;29;20043;-74
2023/07/11 12:02:04;;;;;;;5.55;1.30;;;;;;;;;;4799827;29;20055;-74
2023/07/11 12:04:37;;;;;;;8.48;2.00;;;;;;;;;;4799663;29;20070;-74
2023/07/11 12:07:12;;;;;;;5.70;1.20;;;;;;;;;;4799112;29;20070;-74
2023/07/11 12:10:09;;;;;;;5.15;1.45;;;;;;;;;;4800173;29;20556;-74
2023/07/11 12:12:54;;;;;;;11.25;1.45;;;;;;;;;;4785190;29;20526;-74
2023/07/11 12:15:36;;;;;;;3.53;1.23;;;;;;;;;;4799626;29;20073;-74
2023/07/11 12:18:29;;;;;;;5.95;1.30;;;;;;;;;;4799950;29;20059;-73
2023/07/11 12:21:45;;;;;;;16.55;1.83;;;;;;;;;;4799234;29;20951;-74
2023/07/11 12:24:22;;;;;;;5.72;1.20;;;;;;;;;;4786656;29;20073;-74
2023/07/11 12:27:17;;;;;;;12.13;2.40;;;;;;;;;;4783172;29;20063;-74
2023/07/11 12:29:47;;;;;;;6.15;1.40;;;;;;;;;;4783880;29;20472;-73
2023/07/11 12:32:33;;;;;;;10.27;1.85;;;;;;;;;;4799410;29;20062;-73
2023/07/11 12:35:04;;;;;;;6.78;1.40;;;;;;;;;;4799209;29;20621;-73
2023/07/11 12:37:46;;;;;;;4.53;1.15;;;;;;;;;;4799026;29;20526;-74
2023/07/11 12:40:30;;;;;;;5.28;1.20;;;;;;;;;;4799581;29;20504;-73
2023/07/11 12:43:03;;;;;;;6.35;1.40;;;;;;;;;;4799543;29;20051;-73
2023/07/11 12:45:38;;;;;;;13.63;1.40;;;;;;;;;;4799887;29;20058;-74
2023/07/11 12:48:26;;;;;;;8.60;1.67;;;;;;;;;;4799091;29;20406;-73
2023/07/11 12:51:02;;;;;;;9.90;1.52;;;;;;;;;;4799181;29;20054;-73
2023/07/11 12:53:37;;;;;;;8.85;1.33;;;;;;;;;;4798607;29;20046;-74
2023/07/11 12:56:13;;;;;;;9.07;1.38;;;;;;;;;;4798963;29;20058;-73
2023/07/11 12:58:45;;;;;;;11.80;1.92;;;;;;;;;;4799321;29;20530;-72
2023/07/11 13:01:16;;;;;;;7.15;1.40;;;;;;;;;;4797473;29;20520;-73
2023/07/11 13:03:47;;;;;;;7.47;1.73;;;;;;;;;;4799251;29;20062;-75
2023/07/11 13:06:23;;;;;;;7.50;1.48;;;;;;;;;;4783028;29;20047;-73
2023/07/11 13:08:56;;;;;;;12.88;1.35;;;;;;;;;;4798921;29;20046;-73
2023/07/11 13:11:30;;;;;;;4.38;1.13;;;;;;;;;;4799183;29;20054;-74
2023/07/11 13:14:02;;;;;;;8.23;1.52;;;;;;;;;;4798550;29;20058;-73
2023/07/11 13:16:40;;;;;;;4.05;1.60;;;;;;;;;;4798952;29;20047;-76
2023/07/11 13:19:21;;;;;;;9.02;1.17;;;;;;;;;;4798581;29;20046;-73
2023/07/11 13:21:52;;;;;;;8.57;1.60;;;;;;;;;;4798674;29;20058;-76
2023/07/11 13:24:28;;;;;;;6.32;1.20;;;;;;;;;;4798235;29;20062;-74
2023/07/11 13:27:04;;;;;;;7.30;1.30;;;;;;;;;;4798852;29;20057;-73
2023/07/11 13:29:38;;;;;;;5.18;1.15;;;;;;;;;;4798228;29;20085;-74
2023/07/11 13:32:18;;;;;;;8.20;1.60;;;;;;;;;;4798725;29;20055;-74
2023/07/11 13:35:01;;;;;;;10.32;1.80;;;;;;;;;;4798675;29;20160;-75
2023/07/11 13:37:47;;;;;;;11.55;1.20;;;;;;;;;;4798125;29;20062;-75
2023/07/11 13:40:39;;;;;;;8.52;1.27;;;;;;;;;;4798311;29;20047;-75
2023/07/11 13:43:20;;;;;;;7.00;1.23;;;;;;;;;;4798010;29;20058;-75
2023/07/11 13:45:51;;;;;;;10.60;1.35;;;;;;;;;;4798091;29;20058;-75
2023/07/11 13:48:24;;;;;;;7.10;1.20;;;;;;;;;;4798285;29;20055;-74
2023/07/11 13:51:18;;;;;;;8.13;1.00;;;;;;;;;;4798231;29;20054;-75
2023/07/11 13:53:55;;;;;;;7.35;1.40;;;;;;;;;;4780495;29;20304;-75
2023/07/11 13:56:25;;;;;;;9.43;2.40;;;;;;;;;;4797779;29;20043;-75
2023/07/11 13:58:55;;;;;;;11.43;1.40;;;;;;;;;;4798333;29;20437;-74
2023/07/11 14:01:32;;;;;;;6.55;1.42;;;;;;;;;;4782688;29;20479;-73
2023/07/11 14:04:16;;;;;;;4.50;1.10;;;;;;;;;;4798358;29;20055;-76
2023/07/11 14:06:47;;;;;;;13.30;1.67;;;;;;;;;;4798283;29;20511;-74
2023/07/11 14:09:18;;;;;;;6.80;1.20;;;;;;;;;;4798034;29;20054;-74
2023/07/11 14:11:48;;;;;;;5.75;1.27;;;;;;;;;;4798105;29;20051;-73
2023/07/11 14:14:20;;;;;;;6.40;1.35;;;;;;;;;;4797757;29;20055;-73
2023/07/11 14:17:18;;;;;;;5.05;0.90;;;;;;;;;;4797990;29;20050;-74
2023/07/11 14:19:48;;;;;;;10.02;1.30;;;;;;;;;;4782307;29;20530;-74
2023/07/11 14:22:24;;;;;;;8.05;1.60;;;;;;;;;;4798329;29;20448;-75
2023/07/11 14:24:54;;;;;;;6.00;1.13;;;;;;;;;;4781857;29;20066;-76
2023/07/11 14:27:27;;;;;;;7.53;1.20;;;;;;;;;;4797888;29;20062;-74
2023/07/11 14:29:56;;;;;;;9.48;1.42;;;;;;;;;;4781904;29;20061;-76
2023/07/11 14:32:28;;;;;;;8.15;1.08;;;;;;;;;;4801517;29;21178;-73
2023/07/11 14:34:58;;;;;;;9.73;1.75;;;;;;;;;;4785392;29;20062;-75
2023/07/11 14:37:30;;;;;;;10.00;1.30;;;;;;;;;;4801870;29;20499;-75
2023/07/11 14:40:01;;;;;;;7.45;1.27;;;;;;;;;;4801941;29;20067;-73
2023/07/11 14:42:32;;;;;;;12.10;1.08;;;;;;;;;;4800519;29;20051;-74
2023/07/11 14:45:05;;;;;;;3.03;0.95;;;;;;;;;;4801359;29;20051;-76
2023/07/11 14:47:36;;;;;;;10.68;1.33;;;;;;;;;;4801289;29;20047;-74
2023/07/11 14:50:14;;;;;;;14.73;2.17;;;;;;;;;;4801653;29;20067;-75
2023/07/11 14:52:45;;;;;;;14.02;2.00;;;;;;;;;;4801437;29;20047;-75
2023/07/11 14:55:18;;;;;;;10.07;1.70;;;;;;;;;;4801506;29;20059;-74
2023/07/11 14:57:54;;;;;;;6.35;1.20;;;;;;;;;;4784446;29;20058;-76
2023/07/11 15:00:29;;;;;;;9.20;1.45;;;;;;;;;;4800914;29;20054;-73
2023/07/11 15:03:00;;;;;;;6.97;1.65;;;;;;;;;;4800809;29;20809;-73
2023/07/11 15:05:30;;;;;;;11.40;1.85;;;;;;;;;;4800828;29;20078;-74
2023/07/11 15:08:14;;;;;;;9.85;1.70;;;;;;;;;;4800762;29;20059;-77
2023/07/11 15:11:26;;;;;;;9.43;1.20;;;;;;;;;;4801362;29;20063;-73
2023/07/11 15:13:58;;;;;;;9.57;1.50;;;;;;;;;;4800574;29;20492;-72
2023/07/11 15:16:35;;;;;;;7.65;1.10;;;;;;;;;;4800961;29;20062;-72
2023/07/11 15:19:26;;;;;;;9.23;1.05;;;;;;;;;;4800497;29;20055;-74
2023/07/11 15:22:03;;;;;;;14.30;2.08;;;;;;;;;;4801048;29;20420;-74
2023/07/11 15:24:38;;;;;;;10.45;1.60;;;;;;;;;;4800575;29;20063;-74
2023/07/11 15:27:11;;;;;;;;;;;;;;;;;;4801638;29;20047;-74
2023/07/11 15:29:42;;;;;;;7.40;1.17;;;;;;;;;;4800814;29;19936;-73
2023/07/11 15:32:23;;;;;;;7.97;1.17;;;;;;;;;;4784526;29;20046;-75
2023/07/11 15:34:54;;;;;;;8.82;1.20;;;;;;;;;;4800577;29;20055;-74